Time;durP1;ratioP1;P1;durP2;ratioP2;P2;SDS_P1;SDS_P2;PMS_P1;PMS_P2;Temp;Humidity;BMP_temperature;BMP_pressure;BME280_temperature;BME280_humidity;BME280_pressure;Samples;Min_cycle;Max_cycle;Signal;HPM_P1;HPM_P2
2022/12/18 00:01:32;;;;;;;9.07;7.38;;;17.20;53.80;;;;;;4999401;28;20184;-67
2022/12/18 00:04:01;;;;;;;8.43;6.70;;;17.20;53.70;;;;;;5011827;28;20278;-67
2022/12/18 00:06:29;;;;;;;9.23;7.35;;;17.10;53.60;;;;;;5011385;28;20306;-67
2022/12/18 00:08:57;;;;;;;8.32;7.38;;;17.20;53.80;;;;;;5011588;28;20196;-67
2022/12/18 00:11:27;;;;;;;8.18;7.00;;;17.20;53.80;;;;;;5011725;28;20184;-67
2022/12/18 00:13:57;;;;;;;8.20;7.30;;;17.20;53.80;;;;;;5011634;28;20183;-67
2022/12/18 00:16:26;;;;;;;9.43;7.95;;;17.20;53.80;;;;;;5011385;28;20239;-68
2022/12/18 00:18:58;;;;;;;9.27;8.27;;;17.20;53.70;;;;;;5021050;28;20189;-67
2022/12/18 00:21:24;;;;;;;7.85;7.05;;;17.20;53.70;;;;;;5007598;28;20195;-67
2022/12/18 00:23:51;;;;;;;7.70;6.90;;;17.20;53.70;;;;;;5011341;28;20183;-67
2022/12/18 00:26:24;;;;;;;8.50;7.32;;;17.10;53.90;;;;;;5027770;28;20223;-67
2022/12/18 00:28:56;;;;;;;7.88;6.75;;;17.20;53.60;;;;;;4995566;28;20599;-67
2022/12/18 00:31:25;;;;;;;7.97;7.05;;;17.10;53.40;;;;;;5012554;28;20609;-67
2022/12/18 00:33:55;;;;;;;8.77;7.35;;;17.10;53.40;;;;;;4995428;28;20738;-67
2022/12/18 00:36:26;;;;;;;8.52;7.63;;;17.10;53.40;;;;;;5011443;28;20219;-67
2022/12/18 00:38:54;;;;;;;7.97;6.95;;;17.10;53.30;;;;;;5010987;28;20180;-67
2022/12/18 00:44:07;;;;;;;7.90;7.07;;;17.10;53.20;;;;;;5027867;28;20184;-67
2022/12/18 00:46:33;;;;;;;9.10;7.55;;;17.10;53.30;;;;;;5010887;28;20204;-67
2022/12/18 00:48:59;;;;;;;8.18;6.78;;;17.10;53.30;;;;;;5011034;28;20184;-67
2022/12/18 00:51:25;;;;;;;9.10;7.18;;;17.10;53.20;;;;;;5011037;28;20190;-67
2022/12/18 00:53:51;;;;;;;9.57;7.13;;;17.10;53.20;;;;;;4995134;28;20185;-67
2022/12/18 00:56:16;;;;;;;8.27;7.35;;;17.10;53.20;;;;;;4994556;28;20794;-67
2022/12/18 00:58:42;;;;;;;8.95;7.57;;;17.10;53.30;;;;;;5011062;28;20250;-66
2022/12/18 01:01:08;;;;;;;9.07;7.53;;;17.10;53.10;;;;;;5011842;28;20188;-67
2022/12/18 01:03:34;;;;;;;9.85;7.90;;;17.10;53.10;;;;;;5014757;28;20219;-67
2022/12/18 01:06:11;;;;;;;8.27;7.40;;;17.10;53.00;;;;;;5014590;28;20216;-67
2022/12/18 01:08:38;;;;;;;8.50;7.60;;;17.10;53.00;;;;;;5014585;28;20285;-67
2022/12/18 01:11:11;;;;;;;9.73;7.82;;;17.10;53.00;;;;;;5031185;28;20176;-67
2022/12/18 01:13:38;;;;;;;8.63;7.72;;;17.10;52.90;;;;;;5014712;28;20636;-67
2022/12/18 01:16:05;;;;;;;8.85;7.65;;;17.10;52.80;;;;;;5014519;28;20303;-67
2022/12/18 01:18:33;;;;;;;8.70;7.40;;;17.10;52.90;;;;;;5014353;28;20211;-67
2022/12/18 01:20:59;;;;;;;9.20;7.57;;;17.10;52.80;;;;;;5014469;28;20660;-67
2022/12/18 01:23:26;;;;;;;7.88;7.05;;;17.10;52.80;;;;;;5015595;28;20565;-67
2022/12/18 01:25:52;;;;;;;8.52;7.57;;;17.10;52.80;;;;;;5014435;28;20211;-67
2022/12/18 01:28:18;;;;;;;9.35;7.65;;;17.10;52.70;;;;;;4997826;28;20192;-67
2022/12/18 01:30:43;;;;;;;7.72;6.70;;;17.10;52.60;;;;;;4997873;28;20295;-67
2022/12/18 01:33:09;;;;;;;10.00;7.70;;;17.10;52.70;;;;;;5014490;28;20238;-67
2022/12/18 01:35:42;;;;;;;9.35;6.93;;;17.10;52.80;;;;;;5015206;28;20211;-67
2022/12/18 01:38:08;;;;;;;8.48;7.28;;;17.10;52.80;;;;;;4997759;28;20189;-67
2022/12/18 01:40:33;;;;;;;8.75;7.15;;;17.10;52.60;;;;;;4997810;28;20191;-67
2022/12/18 01:42:59;;;;;;;8.63;7.70;;;17.10;52.60;;;;;;5014059;28;20184;-67
2022/12/18 01:45:29;;;;;;;7.78;6.75;;;17.10;52.60;;;;;;5013596;28;20277;-67
2022/12/18 01:47:59;;;;;;;8.57;7.20;;;17.10;52.60;;;;;;5013726;28;20192;-67
2022/12/18 01:50:39;;;;;;;8.93;7.53;;;17.10;52.60;;;;;;5013882;28;20188;-67
2022/12/18 01:53:22;;;;;;;8.68;7.43;;;17.10;52.50;;;;;;4997935;28;20191;-67
2022/12/18 01:55:57;;;;;;;8.82;7.65;;;17.10;52.50;;;;;;5014107;28;20211;-67
2022/12/18 01:58:37;;;;;;;8.85;7.22;;;17.10;52.50;;;;;;5013652;28;20233;-67
2022/12/18 02:01:03;;;;;;;8.43;7.63;;;17.10;52.50;;;;;;5013734;28;20192;-67
2022/12/18 02:03:32;;;;;;;8.82;7.60;;;17.10;52.40;;;;;;5029860;28;20213;-67
2022/12/18 02:06:16;;;;;;;7.78;6.95;;;17.10;52.40;;;;;;4997080;28;20220;-67
2022/12/18 02:09:15;;;;;;;8.88;7.80;;;17.10;52.40;;;;;;5013510;28;20195;-67
2022/12/18 02:11:59;;;;;;;8.45;7.57;;;17.10;52.40;;;;;;5030123;28;20161;-67
2022/12/18 02:14:58;;;;;;;8.00;7.20;;;17.10;52.30;;;;;;5013135;28;20190;-67
2022/12/18 02:17:49;;;;;;;9.07;7.53;;;17.10;52.20;;;;;;5014474;28;20235;-67
2022/12/18 02:20:25;;;;;;;8.15;7.30;;;17.10;52.20;;;;;;5012661;28;20203;-67
2022/12/18 02:23:09;;;;;;;8.13;7.32;;;17.10;52.30;;;;;;5013524;28;20538;-67
2022/12/18 02:26:04;;;;;;;8.10;7.22;;;17.10;52.20;;;;;;5013155;28;20215;-67
2022/12/18 02:28:36;;;;;;;8.68;7.65;;;17.10;52.20;;;;;;5013125;28;20180;-67
2022/12/18 02:31:11;;;;;;;9.02;7.25;;;17.10;52.10;;;;;;4997653;28;20190;-67
2022/12/18 02:33:40;;;;;;;8.85;7.68;;;17.10;52.10;;;;;;5013400;28;20651;-66
2022/12/18 02:36:08;;;;;;;8.38;7.18;;;17.10;52.10;;;;;;4997200;28;20210;-67
2022/12/18 02:38:36;;;;;;;8.48;7.60;;;17.10;52.10;;;;;;5029408;28;20183;-67
2022/12/18 02:41:08;;;;;;;7.90;7.18;;;17.10;52.10;;;;;;5013954;28;20191;-67
2022/12/18 02:43:35;;;;;;;7.88;7.07;;;17.10;52.10;;;;;;5012907;28;20195;-67
2022/12/18 02:46:34;;;;;;;7.90;6.90;;;17.10;52.10;;;;;;5013025;28;20222;-67
2022/12/18 02:49:25;;;;;;;7.18;6.47;;;17.10;52.10;;;;;;5009168;28;20189;-67
2022/12/18 02:52:17;;;;;;;8.15;7.35;;;17.10;52.00;;;;;;5006754;28;20188;-67
2022/12/18 02:55:08;;;;;;;7.97;7.18;;;17.10;51.90;;;;;;5029081;28;20234;-67
2022/12/18 02:57:49;;;;;;;7.55;6.80;;;17.10;52.00;;;;;;5012576;28;20199;-67
2022/12/18 03:00:48;;;;;;;7.57;6.65;;;17.10;51.90;;;;;;5012961;28;20180;-67
2022/12/18 03:03:24;;;;;;;8.00;7.20;;;17.10;51.90;;;;;;5029349;28;20182;-67
2022/12/18 03:06:18;;;;;;;7.68;6.85;;;17.10;51.90;;;;;;5009241;28;20216;-67
2022/12/18 03:08:50;;;;;;;7.95;7.05;;;17.10;52.00;;;;;;5010175;28;20204;-67
2022/12/18 03:12:22;;;;;;;8.00;7.20;;;17.00;51.80;;;;;;5012749;28;20648;-67
2022/12/18 03:14:07;;;;;;;7.93;7.13;;;17.10;51.90;;;;;;5012011;28;20192;-67
2022/12/18 03:16:36;;;;;;;7.55;6.75;;;17.00;51.80;;;;;;4996251;28;20212;-67
2022/12/18 03:19:13;;;;;;;7.25;6.55;;;17.10;51.80;;;;;;5012407;28;20191;-67
2022/12/18 03:21:54;;;;;;;7.90;6.88;;;17.10;51.70;;;;;;5012505;28;20171;-67
2022/12/18 03:24:26;;;;;;;7.43;6.70;;;17.10;51.80;;;;;;5011501;28;20195;-67
2022/12/18 03:27:00;;;;;;;7.90;6.85;;;17.00;51.70;;;;;;5011844;28;20204;-65
2022/12/18 03:29:40;;;;;;;7.60;6.80;;;17.00;51.70;;;;;;5012328;28;20180;-67
2022/12/18 03:32:47;;;;;;;7.07;6.38;;;17.10;51.60;;;;;;4995783;28;20188;-67
2022/12/18 03:35:21;;;;;;;7.70;6.90;;;17.00;51.60;;;;;;4995962;28;20200;-67
2022/12/18 03:37:47;;;;;;;6.82;6.18;;;17.10;51.60;;;;;;4995540;28;20176;-67
2022/12/18 03:40:13;;;;;;;8.30;6.75;;;17.00;51.60;;;;;;4996018;28;20176;-67
2022/12/18 03:42:51;;;;;;;7.57;6.78;;;17.00;51.50;;;;;;4995578;28;20274;-67
2022/12/18 03:45:37;;;;;;;8.57;7.20;;;17.00;51.40;;;;;;4995597;28;20290;-67
2022/12/18 03:48:27;;;;;;;6.82;6.00;;;17.10;51.50;;;;;;4995887;28;20180;-67
2022/12/18 03:51:13;;;;;;;7.22;6.53;;;17.10;51.50;;;;;;4995882;28;20181;-67
2022/12/18 03:53:55;;;;;;;6.85;6.15;;;17.00;51.40;;;;;;4995520;28;20180;-67
2022/12/18 03:56:30;;;;;;;7.80;6.68;;;17.00;51.40;;;;;;4996017;28;20204;-67
2022/12/18 03:59:02;;;;;;;6.65;6.05;;;17.10;51.50;;;;;;5011522;28;20179;-67
2022/12/18 04:01:38;;;;;;;7.53;6.22;;;17.00;51.40;;;;;;5011692;28;20271;-67
2022/12/18 04:04:06;;;;;;;7.10;6.40;;;17.00;51.40;;;;;;4995550;28;20186;-67
2022/12/18 04:06:37;;;;;;;7.13;6.43;;;17.00;51.40;;;;;;5019078;23;20239;-68
2022/12/18 04:09:04;;;;;;;7.95;6.60;;;17.10;51.40;;;;;;5011057;28;20660;-68
2022/12/18 04:11:32;;;;;;;6.15;5.55;;;17.10;51.40;;;;;;4995739;28;20190;-68
2022/12/18 04:13:59;;;;;;;7.30;6.60;;;17.10;51.30;;;;;;5011755;28;20180;-68
2022/12/18 04:16:27;;;;;;;7.07;6.38;;;17.00;51.20;;;;;;5011314;28;20296;-67
2022/12/18 04:18:56;;;;;;;6.80;6.10;;;17.00;51.30;;;;;;5011543;28;20560;-69
2022/12/18 04:21:24;;;;;;;7.53;6.72;;;17.00;51.30;;;;;;5027454;28;20211;-69
2022/12/18 04:23:49;;;;;;;7.53;6.78;;;17.00;51.30;;;;;;5011318;28;20184;-68
2022/12/18 04:26:18;;;;;;;6.43;5.82;;;17.00;51.30;;;;;;5027624;28;20216;-68
2022/12/18 04:29:10;;;;;;;6.55;5.78;;;17.00;51.30;;;;;;5009300;28;20195;-68
2022/12/18 04:31:36;;;;;;;7.72;6.30;;;17.00;51.20;;;;;;5011323;28;20178;-68
2022/12/18 04:34:03;;;;;;;6.55;5.95;;;17.00;51.20;;;;;;5027355;28;20207;-69
2022/12/18 04:36:34;;;;;;;6.90;6.20;;;17.00;51.20;;;;;;5013659;28;20286;-68
2022/12/18 04:39:00;;;;;;;6.85;6.15;;;17.00;51.20;;;;;;4998888;28;20191;-68
2022/12/18 04:41:26;;;;;;;6.38;5.75;;;17.00;51.20;;;;;;5015222;28;20238;-68
2022/12/18 04:43:53;;;;;;;6.57;5.97;;;17.00;51.10;;;;;;4999125;28;20192;-68
2022/12/18 04:46:18;;;;;;;6.53;5.88;;;17.00;51.10;;;;;;5014956;28;20221;-68
2022/12/18 04:48:46;;;;;;;5.53;5.03;;;17.00;51.10;;;;;;5014905;28;20188;-68
2022/12/18 04:51:12;;;;;;;6.50;5.90;;;17.00;51.10;;;;;;4999068;28;20180;-69
2022/12/18 04:53:38;;;;;;;6.03;5.45;;;17.00;51.00;;;;;;5015377;28;20564;-68
2022/12/18 04:56:14;;;;;;;5.95;5.35;;;17.00;51.10;;;;;;5014785;28;20215;-68
2022/12/18 04:58:42;;;;;;;6.03;5.43;;;17.00;51.00;;;;;;5014792;28;20176;-68
2022/12/18 05:01:10;;;;;;;6.32;5.72;;;17.00;51.10;;;;;;5031254;28;20196;-68
2022/12/18 05:03:37;;;;;;;6.03;5.43;;;17.00;51.00;;;;;;5014549;28;20196;-68
2022/12/18 05:06:05;;;;;;;6.25;5.65;;;17.00;51.00;;;;;;5015506;28;20218;-69
2022/12/18 05:08:31;;;;;;;6.13;5.63;;;17.00;51.00;;;;;;5014591;28;20234;-69
2022/12/18 05:11:15;;;;;;;6.45;5.85;;;17.00;51.10;;;;;;5014780;28;20255;-68
2022/12/18 05:13:43;;;;;;;5.57;5.07;;;17.00;51.00;;;;;;5031136;28;20180;-68
2022/12/18 05:16:10;;;;;;;6.05;5.45;;;17.00;50.90;;;;;;5014529;28;20232;-69
2022/12/18 05:18:36;;;;;;;6.22;5.63;;;17.00;50.90;;;;;;5015681;28;20184;-68
2022/12/18 05:21:03;;;;;;;5.88;5.25;;;17.00;51.00;;;;;;4998208;28;20188;-68
2022/12/18 05:23:29;;;;;;;5.95;5.35;;;17.00;50.90;;;;;;5014518;28;20203;-68
2022/12/18 05:26:02;;;;;;;6.43;5.65;;;17.00;50.90;;;;;;5030895;28;20211;-68
2022/12/18 05:28:32;;;;;;;6.05;5.55;;;17.00;50.90;;;;;;5031044;28;20227;-69
2022/12/18 05:31:02;;;;;;;5.97;5.38;;;17.00;50.90;;;;;;5014578;28;20180;-68
2022/12/18 05:33:33;;;;;;;6.55;5.95;;;17.00;50.90;;;;;;5030819;28;20180;-69
2022/12/18 05:36:06;;;;;;;6.15;5.30;;;17.00;50.80;;;;;;4997771;28;20353;-68
2022/12/18 05:38:36;;;;;;;5.95;5.35;;;17.00;50.90;;;;;;5020901;28;20181;-69
2022/12/18 05:41:03;;;;;;;6.47;5.88;;;17.00;50.80;;;;;;5027277;28;20223;-69
2022/12/18 05:43:29;;;;;;;6.20;5.60;;;17.00;50.80;;;;;;5027509;28;20184;-69
2022/12/18 05:45:56;;;;;;;6.13;5.53;;;17.00;50.80;;;;;;5012271;28;20223;-69
2022/12/18 05:48:22;;;;;;;6.10;5.45;;;17.00;50.80;;;;;;5029104;28;20188;-69
2022/12/18 05:50:50;;;;;;;5.63;5.13;;;17.00;50.80;;;;;;5030318;28;20203;-69
2022/12/18 05:53:19;;;;;;;6.15;5.50;;;17.00;50.80;;;;;;5013844;28;20184;-69
2022/12/18 05:55:46;;;;;;;5.72;5.15;;;17.00;50.80;;;;;;5030250;28;20211;-69
2022/12/18 05:58:14;;;;;;;5.93;5.32;;;17.00;50.70;;;;;;5014749;28;20184;-69
2022/12/18 06:00:45;;;;;;;5.80;5.20;;;17.00;50.70;;;;;;5014033;28;20181;-68
2022/12/18 06:03:13;;;;;;;5.93;5.40;;;17.00;50.80;;;;;;5013535;28;20187;-69
2022/12/18 06:05:44;;;;;;;6.45;5.75;;;17.00;50.70;;;;;;5014607;28;20255;-69
2022/12/18 06:08:12;;;;;;;6.70;6.00;;;17.00;50.70;;;;;;4997016;28;20200;-69
2022/12/18 06:10:38;;;;;;;6.00;5.40;;;17.00;50.60;;;;;;5013640;28;20268;-69
2022/12/18 06:13:05;;;;;;;6.05;5.45;;;17.00;50.60;;;;;;5030152;28;20268;-68
2022/12/18 06:15:31;;;;;;;5.93;5.32;;;17.00;50.60;;;;;;5030244;28;20215;-69
2022/12/18 06:17:57;;;;;;;6.43;5.82;;;17.00;50.70;;;;;;5030101;28;20184;-68
2022/12/18 06:20:23;;;;;;;6.68;5.97;;;17.00;50.70;;;;;;5013364;28;20207;-68
2022/12/18 06:22:49;;;;;;;6.47;5.75;;;17.00;50.70;;;;;;5013366;28;20168;-68
2022/12/18 06:25:15;;;;;;;5.90;5.35;;;17.00;50.80;;;;;;5013452;28;20214;-68
2022/12/18 06:27:41;;;;;;;5.97;5.38;;;17.00;50.70;;;;;;5029703;28;20670;-68
2022/12/18 06:30:07;;;;;;;5.78;5.18;;;17.00;50.60;;;;;;5014387;28;20175;-69
2022/12/18 06:32:33;;;;;;;6.25;5.65;;;17.00;50.60;;;;;;5029741;28;20212;-69
2022/12/18 06:34:59;;;;;;;6.78;6.07;;;17.00;50.60;;;;;;5029683;28;20223;-68
2022/12/18 06:37:25;;;;;;;6.25;5.70;;;17.00;50.60;;;;;;5029561;28;20184;-68
2022/12/18 06:39:53;;;;;;;5.20;4.70;;;17.00;50.60;;;;;;5014207;28;20195;-69
2022/12/18 06:42:21;;;;;;;5.50;5.00;;;17.00;50.60;;;;;;4997093;28;20203;-68
2022/12/18 06:44:47;;;;;;;6.43;5.78;;;17.00;50.60;;;;;;5013090;28;20243;-68
2022/12/18 06:47:12;;;;;;;5.88;5.28;;;17.00;50.60;;;;;;5029200;28;20214;-68
2022/12/18 06:49:38;;;;;;;5.78;5.15;;;17.00;50.60;;;;;;5014263;28;20192;-68
2022/12/18 06:52:04;;;;;;;5.88;5.30;;;17.00;50.60;;;;;;5014232;28;20203;-68
2022/12/18 06:54:29;;;;;;;5.70;5.20;;;16.90;50.50;;;;;;5012684;28;20198;-67
2022/12/18 06:56:56;;;;;;;6.25;5.65;;;17.00;50.50;;;;;;5029398;28;20208;-67
2022/12/18 06:59:21;;;;;;;5.85;5.35;;;17.00;50.50;;;;;;4996007;28;20679;-68
2022/12/18 07:01:47;;;;;;;6.13;5.53;;;17.00;50.50;;;;;;5012735;28;20188;-68
2022/12/18 07:04:13;;;;;;;5.72;5.22;;;17.00;50.50;;;;;;4996461;28;20188;-68
2022/12/18 07:06:38;;;;;;;6.07;5.55;;;17.00;50.40;;;;;;4996053;28;20250;-68
2022/12/18 07:09:04;;;;;;;6.15;5.55;;;17.00;50.40;;;;;;5013642;28;20238;-68
2022/12/18 07:11:33;;;;;;;6.05;5.45;;;17.00;51.00;;;;;;5028915;28;20570;-68
2022/12/18 07:13:59;;;;;;;5.70;5.20;;;17.00;50.50;;;;;;5012698;28;20184;-69
2022/12/18 07:16:25;;;;;;;5.93;5.32;;;17.00;50.50;;;;;;5012609;28;20699;-68
2022/12/18 07:18:51;;;;;;;6.00;5.25;;;17.00;50.50;;;;;;5013345;28;20188;-68
2022/12/18 07:21:19;;;;;;;5.75;5.15;;;17.00;50.40;;;;;;4996316;28;20666;-68
2022/12/18 07:23:47;;;;;;;6.00;5.40;;;17.00;50.40;;;;;;5013463;28;20667;-68
2022/12/18 07:26:16;;;;;;;5.82;5.20;;;17.00;50.40;;;;;;5012146;28;20303;-68
2022/12/18 07:28:42;;;;;;;6.57;5.90;;;17.00;50.40;;;;;;5011883;28;20176;-68
2022/12/18 07:31:14;;;;;;;6.15;5.55;;;17.00;50.40;;;;;;5012230;28;20245;-70
2022/12/18 07:33:40;;;;;;;6.45;5.85;;;16.90;50.40;;;;;;5012257;28;20176;-70
2022/12/18 07:36:09;;;;;;;6.70;6.10;;;17.00;50.40;;;;;;5011899;28;20200;-69
2022/12/18 07:38:36;;;;;;;6.35;5.75;;;17.00;50.40;;;;;;5011835;28;20188;-68
2022/12/18 07:41:03;;;;;;;5.88;5.38;;;17.00;51.00;;;;;;5028271;28;20242;-68
2022/12/18 07:43:29;;;;;;;5.70;5.20;;;16.90;50.30;;;;;;4995311;28;20196;-68
2022/12/18 07:45:55;;;;;;;6.28;5.72;;;16.90;50.30;;;;;;5028426;28;20219;-69
2022/12/18 07:48:20;;;;;;;6.22;5.63;;;16.90;50.30;;;;;;5011691;28;20207;-68
2022/12/18 07:50:46;;;;;;;5.93;5.32;;;16.90;50.20;;;;;;4999387;28;20192;-69
2022/12/18 07:53:12;;;;;;;5.95;5.35;;;17.00;50.30;;;;;;4975912;28;20177;-69
2022/12/18 07:55:38;;;;;;;5.82;5.22;;;17.00;50.20;;;;;;5011579;28;20621;-68
2022/12/18 07:58:04;;;;;;;5.82;5.30;;;17.00;50.30;;;;;;4994961;28;20246;-69
2022/12/18 08:00:31;;;;;;;6.25;5.53;;;17.00;50.20;;;;;;5011637;28;20187;-68
2022/12/18 08:02:57;;;;;;;6.80;5.78;;;16.90;50.20;;;;;;5028475;28;20219;-68
2022/12/18 08:05:23;;;;;;;5.90;5.40;;;16.90;50.10;;;;;;5027844;28;20722;-68
2022/12/18 08:07:49;;;;;;;5.32;4.82;;;16.90;50.10;;;;;;5012547;28;20206;-68
2022/12/18 08:10:15;;;;;;;6.60;5.90;;;16.90;50.10;;;;;;5027808;28;20240;-69
2022/12/18 08:12:41;;;;;;;5.97;5.38;;;16.90;50.40;;;;;;5011243;28;20718;-68
2022/12/18 08:15:08;;;;;;;6.00;5.40;;;16.90;50.10;;;;;;5028185;28;20239;-69
2022/12/18 08:17:34;;;;;;;6.20;5.60;;;16.90;50.10;;;;;;5027874;28;20192;-67
2022/12/18 08:19:59;;;;;;;6.28;5.68;;;16.90;50.10;;;;;;5027996;28;20188;-68
2022/12/18 08:22:25;;;;;;;6.60;5.90;;;16.90;50.00;;;;;;5011368;28;20184;-69
2022/12/18 08:24:51;;;;;;;5.63;5.10;;;16.90;50.10;;;;;;5027517;28;20184;-68
2022/12/18 08:27:17;;;;;;;6.78;6.07;;;16.90;50.00;;;;;;5027576;28;20299;-68
2022/12/18 08:29:43;;;;;;;6.65;5.95;;;16.90;50.00;;;;;;5007890;28;20265;-68
2022/12/18 08:32:09;;;;;;;6.18;5.57;;;16.90;50.00;;;;;;5008155;28;20219;-68
2022/12/18 08:34:34;;;;;;;6.20;5.57;;;16.90;50.00;;;;;;5010153;28;20211;-68
2022/12/18 08:37:00;;;;;;;6.20;5.60;;;17.00;50.10;;;;;;5021926;28;20213;-68
2022/12/18 08:39:26;;;;;;;5.60;5.10;;;16.90;50.00;;;;;;4997557;28;20199;-68
2022/12/18 08:44:39;;;;;;;6.10;5.40;;;16.90;50.00;;;;;;5022711;28;20322;-68
2022/12/18 08:47:07;;;;;;;6.10;4.95;;;16.90;50.00;;;;;;5003885;28;20230;-68
2022/12/18 08:49:34;;;;;;;6.60;5.90;;;17.00;50.00;;;;;;5017398;28;20271;-68
2022/12/18 08:52:01;;;;;;;7.13;6.32;;;17.00;50.00;;;;;;5024319;28;20188;-69
2022/12/18 08:54:27;;;;;;;6.45;5.78;;;17.00;50.00;;;;;;4995488;28;20184;-69
2022/12/18 08:56:53;;;;;;;6.95;5.60;;;17.00;50.00;;;;;;5011122;28;20199;-69
2022/12/18 08:59:19;;;;;;;6.57;5.88;;;17.00;50.00;;;;;;5025254;28;20195;-68
2022/12/18 09:01:46;;;;;;;6.20;5.60;;;17.00;50.00;;;;;;5024402;28;20188;-69
2022/12/18 09:04:13;;;;;;;6.00;5.50;;;17.00;50.00;;;;;;5010872;28;20238;-68
2022/12/18 09:06:40;;;;;;;6.50;5.65;;;17.00;50.00;;;;;;5019743;28;20304;-69
2022/12/18 09:09:06;;;;;;;6.50;5.80;;;17.00;50.00;;;;;;5016003;28;20184;-68
2022/12/18 09:11:33;;;;;;;6.13;5.53;;;17.00;49.90;;;;;;4991013;28;20563;-68
2022/12/18 09:14:01;;;;;;;7.00;5.68;;;17.00;49.90;;;;;;5018281;28;20185;-69
2022/12/18 09:16:28;;;;;;;6.68;5.93;;;17.00;49.80;;;;;;5012462;28;20259;-68
2022/12/18 09:19:01;;;;;;;6.57;5.72;;;17.00;49.90;;;;;;5017386;28;20196;-68
2022/12/18 09:21:32;;;;;;;6.40;5.72;;;17.00;49.80;;;;;;5022260;28;20192;-69
2022/12/18 09:23:58;;;;;;;6.10;5.43;;;17.00;49.80;;;;;;5012836;28;20176;-68
2022/12/18 09:26:26;;;;;;;6.20;5.60;;;17.00;49.80;;;;;;5021245;28;20216;-68
2022/12/18 09:28:52;;;;;;;6.13;5.50;;;17.00;49.70;;;;;;5011136;28;20184;-69
2022/12/18 09:31:22;;;;;;;6.85;5.75;;;17.00;49.80;;;;;;5030745;28;20184;-69
2022/12/18 09:33:48;;;;;;;6.43;5.82;;;17.00;49.70;;;;;;5014270;28;20220;-69
2022/12/18 09:36:17;;;;;;;6.30;5.70;;;17.00;49.70;;;;;;5014050;28;20203;-69
2022/12/18 09:38:43;;;;;;;7.85;6.35;;;17.00;49.70;;;;;;5014245;28;20286;-69
2022/12/18 09:41:40;;;;;;;6.85;6.15;;;17.00;49.70;;;;;;5014007;28;20184;-68
2022/12/18 09:44:40;;;;;;;5.93;5.40;;;17.10;49.70;;;;;;5030573;28;20180;-69
2022/12/18 09:47:23;;;;;;;6.18;5.55;;;17.00;49.60;;;;;;5030860;28;20224;-69
2022/12/18 09:49:58;;;;;;;7.18;6.47;;;17.00;49.70;;;;;;5013736;28;20196;-68
2022/12/18 09:52:37;;;;;;;6.82;6.13;;;17.00;49.60;;;;;;5013986;28;20689;-69
2022/12/18 09:55:36;;;;;;;6.68;5.80;;;17.00;49.70;;;;;;5013714;28;20204;-69
2022/12/18 09:58:32;;;;;;;6.60;5.90;;;17.00;49.70;;;;;;5024761;28;20215;-68
2022/12/18 10:00:58;;;;;;;7.47;6.68;;;17.00;49.50;;;;;;5014679;28;20188;-69
2022/12/18 10:03:24;;;;;;;6.93;6.15;;;17.00;49.50;;;;;;5002474;28;20196;-69
2022/12/18 10:05:58;;;;;;;6.63;5.90;;;17.00;49.60;;;;;;4997021;28;20242;-68
2022/12/18 10:08:51;;;;;;;6.50;5.90;;;17.00;49.60;;;;;;5029939;28;20168;-68
2022/12/18 10:11:43;;;;;;;6.60;6.00;;;17.00;49.60;;;;;;4997449;28;20195;-68
2022/12/18 10:14:33;;;;;;;7.55;6.28;;;17.00;49.50;;;;;;5013283;28;20270;-68
2022/12/18 10:17:33;;;;;;;6.47;5.88;;;17.00;49.60;;;;;;5014616;28;20212;-69
2022/12/18 10:20:15;;;;;;;6.40;5.80;;;17.10;49.60;;;;;;5014754;28;20259;-69
2022/12/18 10:22:45;;;;;;;6.47;5.78;;;17.00;49.50;;;;;;4997392;28;20188;-69
2022/12/18 10:25:49;;;;;;;6.57;5.93;;;17.10;49.60;;;;;;5012836;28;20208;-68
2022/12/18 10:28:18;;;;;;;6.32;5.72;;;17.10;49.50;;;;;;5050681;23;20240;-67
2022/12/18 10:30:44;;;;;;;6.15;5.55;;;17.10;49.60;;;;;;5029599;28;20192;-67
2022/12/18 10:33:24;;;;;;;7.85;4.75;;;17.10;49.60;;;;;;5013280;28;20723;-69
2022/12/18 10:35:54;;;;;;;5.85;5.25;;;17.20;53.60;;;;;;4998769;28;20195;-67
2022/12/18 10:38:31;;;;;;;6.03;4.90;;;17.30;51.90;;;;;;4993318;28;20223;-67
2022/12/18 10:41:14;;;;;;;5.28;4.78;;;17.30;52.10;;;;;;4993490;28;20192;-69
2022/12/18 10:43:40;;;;;;;6.40;4.85;;;17.30;52.00;;;;;;5009664;28;20189;-69
2022/12/18 10:46:09;;;;;;;7.35;5.35;;;17.20;51.70;;;;;;4993250;28;20222;-69
2022/12/18 10:48:47;;;;;;;6.38;5.32;;;17.20;51.60;;;;;;4993321;28;20239;-68
2022/12/18 10:51:33;;;;;;;8.35;5.10;;;17.20;51.50;;;;;;4993483;28;20210;-69
2022/12/18 10:54:24;;;;;;;7.47;6.03;;;17.20;51.40;;;;;;4993182;28;20291;-68
2022/12/18 10:56:49;;;;;;;5.88;5.15;;;17.20;51.20;;;;;;4993590;28;20582;-69
2022/12/18 10:59:18;;;;;;;5.80;5.20;;;17.20;51.20;;;;;;4992906;28;20243;-68
2022/12/18 11:01:56;;;;;;;6.38;5.20;;;17.30;51.30;;;;;;4994403;28;20208;-69
2022/12/18 11:04:25;;;;;;;7.55;5.40;;;17.30;51.20;;;;;;4989743;28;20181;-69
2022/12/18 11:07:10;;;;;;;5.95;5.03;;;17.20;51.00;;;;;;4957682;28;20216;-70
2022/12/18 11:09:39;;;;;;;6.97;5.50;;;17.20;51.00;;;;;;4992145;28;20193;-69
2022/12/18 11:12:19;;;;;;;7.63;4.80;;;17.20;51.40;;;;;;4992731;28;20340;-68
2022/12/18 11:14:54;;;;;;;7.25;4.72;;;17.30;51.20;;;;;;5005568;28;20189;-68
2022/12/18 11:17:30;;;;;;;8.27;5.57;;;17.30;51.20;;;;;;4976593;28;20185;-68
2022/12/18 11:20:31;;;;;;;6.53;5.43;;;17.30;51.20;;;;;;5009045;28;20188;-66
2022/12/18 11:23:01;;;;;;;5.40;4.90;;;17.30;51.10;;;;;;4992679;28;20199;-68
2022/12/18 11:25:32;;;;;;;5.90;4.85;;;17.30;51.20;;;;;;4992703;28;20188;-68
2022/12/18 11:28:24;;;;;;;6.78;5.78;;;17.30;51.00;;;;;;5008921;28;20208;-68
2022/12/18 11:31:22;;;;;;;7.63;6.18;;;17.30;51.00;;;;;;5009314;28;20184;-69
2022/12/18 11:34:24;;;;;;;7.40;5.72;;;17.30;51.00;;;;;;4993842;28;20227;-68
2022/12/18 11:36:50;;;;;;;6.32;5.35;;;17.30;50.80;;;;;;5008894;28;20264;-68
2022/12/18 11:39:51;;;;;;;5.13;4.63;;;17.30;50.80;;;;;;4992431;28;20339;-68
2022/12/18 11:42:27;;;;;;;6.78;5.22;;;17.30;50.80;;;;;;4993639;28;20311;-68
2022/12/18 11:45:18;;;;;;;6.95;6.07;;;17.30;50.70;;;;;;5008668;28;20208;-68
2022/12/18 11:47:57;;;;;;;7.70;5.35;;;17.30;50.70;;;;;;4992083;28;20229;-68
2022/12/18 11:51:09;;;;;;;6.55;5.80;;;17.30;50.70;;;;;;4992050;28;20196;-69
2022/12/18 11:53:37;;;;;;;6.35;5.50;;;17.30;50.60;;;;;;4948716;29;20195;-68
2022/12/18 11:56:41;;;;;;;6.43;5.72;;;17.30;50.50;;;;;;4937866;29;20258;-68
2022/12/18 11:59:42;;;;;;;6.95;5.43;;;17.30;50.50;;;;;;4979486;28;20225;-69
2022/12/18 12:02:40;;;;;;;6.45;5.72;;;17.30;50.50;;;;;;4990286;28;20200;-69
2022/12/18 12:05:36;;;;;;;7.05;6.18;;;17.30;50.50;;;;;;4988572;28;20184;-68
2022/12/18 12:08:58;;;;;;;6.25;5.50;;;17.30;50.40;;;;;;5004274;28;20205;-68
2022/12/18 12:11:32;;;;;;;6.38;5.55;;;17.30;50.40;;;;;;4981999;28;20199;-68
2022/12/18 12:14:40;;;;;;;6.22;5.60;;;17.30;50.40;;;;;;5007984;28;20188;-68
2022/12/18 12:18:06;;;;;;;6.40;5.35;;;17.30;50.40;;;;;;4990146;28;20260;-67
2022/12/18 12:21:13;;;;;;;7.95;6.28;;;17.30;50.30;;;;;;4993884;28;20200;-68
2022/12/18 12:24:04;;;;;;;7.18;5.97;;;17.30;50.30;;;;;;4958263;28;20193;-67
2022/12/18 12:26:58;;;;;;;6.97;5.78;;;17.30;50.30;;;;;;4988760;28;20240;-68
2022/12/18 12:30:00;;;;;;;6.03;5.32;;;17.30;50.20;;;;;;4972348;28;20597;-67
2022/12/18 12:33:02;;;;;;;6.55;5.85;;;17.30;50.20;;;;;;5003385;28;20255;-68
2022/12/18 12:35:51;;;;;;;9.27;5.82;;;17.30;50.20;;;;;;4988527;28;20173;-67
2022/12/18 12:38:31;;;;;;;6.47;5.72;;;17.30;50.20;;;;;;4998344;28;20224;-67
2022/12/18 12:43:12;;;;;;;6.25;5.63;;;17.40;50.20;;;;;;4991627;28;20667;-68
2022/12/18 12:43:57;;;;;;;6.35;5.75;;;17.40;50.20;;;;;;4991566;28;20180;-67
2022/12/18 12:46:26;;;;;;;6.38;5.65;;;17.40;50.20;;;;;;5007723;28;20204;-67
2022/12/18 12:49:00;;;;;;;6.32;5.72;;;17.40;50.20;;;;;;4992438;28;20209;-67
2022/12/18 12:51:38;;;;;;;6.47;5.82;;;17.40;50.20;;;;;;4993174;28;20267;-67
2022/12/18 12:54:15;;;;;;;6.57;5.88;;;17.40;50.10;;;;;;5010076;28;20243;-68
2022/12/18 12:57:04;;;;;;;6.78;6.00;;;17.40;50.10;;;;;;4992949;28;20184;-67
2022/12/18 13:00:12;;;;;;;6.85;5.93;;;17.40;50.10;;;;;;4996749;28;20204;-68
2022/12/18 13:03:14;;;;;;;5.93;5.32;;;17.40;50.10;;;;;;4994829;28;20192;-67
2022/12/18 13:05:42;;;;;;;7.45;6.25;;;17.40;50.10;;;;;;4994380;28;20224;-68
2022/12/18 13:08:21;;;;;;;6.65;5.68;;;17.30;50.00;;;;;;4997945;28;20209;-68
2022/12/18 13:10:47;;;;;;;6.28;5.63;;;17.40;50.10;;;;;;4995622;28;20189;-67
2022/12/18 13:13:16;;;;;;;6.28;5.68;;;17.40;50.10;;;;;;5015308;28;20283;-67
2022/12/18 13:15:50;;;;;;;6.55;5.88;;;17.40;50.10;;;;;;5012083;28;20234;-69
2022/12/18 13:18:24;;;;;;;6.82;6.13;;;17.40;50.00;;;;;;5015800;28;20208;-67
2022/12/18 13:21:20;;;;;;;6.75;5.50;;;17.40;50.10;;;;;;5012574;28;20192;-67
2022/12/18 13:23:46;;;;;;;6.50;5.80;;;17.40;50.00;;;;;;4995576;28;20197;-70
2022/12/18 13:26:18;;;;;;;6.80;5.90;;;17.40;50.00;;;;;;4996749;28;20250;-68
2022/12/18 13:28:46;;;;;;;6.32;5.53;;;17.40;50.00;;;;;;5012302;28;20228;-67